KAYS/AYS METAR and TAF weather

Enter ICAO airport designator
Station Type Date Time Source
KAYS METAR 2018/01/24 07:15 UTC NOAA

KAYS 240715Z AUTO 35004KT 10SM CLR 07/M01 A3015 RMK AO2 T00741010


Station Type Date Time Source
KAYS Decoded METAR 2018/01/24 07:15 UTC NOAA

Waycross / Ware County, Ga, GA, United States (KAYS) 31-15N 082-24W 46M
Jan 24, 2018 - 02:15 AM EST / 2018.01.24 0715 UTC
Wind: from the N (350 degrees) at 5 MPH (4 KT):0
Visibility: 10 mile(s):0
Sky conditions: clear
Temperature: 45.3 F (7.4 C)
Dew Point: 30.2 F (-1.0 C)
Relative Humidity: 55%
Pressure (altimeter): 30.15 in. Hg (1020 hPa)
ob: KAYS 240715Z AUTO 35004KT 10SM CLR 07/M01 A3015 RMK AO2 T00741010
cycle: 7

Station Type Date Time Source
KAYS TAF UTC NOAA

Error!


Example: see airport list